Terminal Aerodrome Forecast
Issued by NWS St Louis, MO

Home | Current Version | Previous Version | Graphics & Text | Print | Product List | Glossary On
Versions: 1 2 3 4 5 6 7 8 9 10 11 12 13 14 15 16 17 18 19 20 21 22 23 24 25 26 27 28 29 30 31 32
000
FTUS43 KLSX 280520
TAFSTL
TAF
KSTL 280520Z 2806/2912 34006KT P6SM BKN010
     FM280900 35006KT 5SM BR OVC007
     FM281600 03006KT P6SM OVC010
     FM282000 04006KT P6SM BKN020
     FM282300 04007KT P6SM BKN035=

USA.gov is the U.S. government's official web portal to all federal, state and local government web resources and services.